sensor_id;sensor_type;location;lat;lon;timestamp;P1;durP1;ratioP1;P2;durP2;ratioP2
75997;SDS011;64685;48.762;44.822;2024-02-28T00:01:50;2.60;;;1.08;;
75997;SDS011;64685;48.762;44.822;2024-02-28T00:06:55;4.75;;;1.85;;
75997;SDS011;64685;48.762;44.822;2024-02-28T00:11:58;2.33;;;0.60;;
75997;SDS011;64685;48.762;44.822;2024-02-28T00:17:02;2.03;;;0.85;;
75997;SDS011;64685;48.762;44.822;2024-02-28T00:22:06;3.58;;;1.65;;
75997;SDS011;64685;48.762;44.822;2024-02-28T00:27:10;3.33;;;0.93;;
75997;SDS011;64685;48.762;44.822;2024-02-28T00:32:14;2.83;;;0.95;;
75997;SDS011;64685;48.762;44.822;2024-02-28T00:37:18;3.83;;;1.17;;
75997;SDS011;64685;48.762;44.822;2024-02-28T00:42:22;1.45;;;0.57;;
75997;SDS011;64685;48.762;44.822;2024-02-28T00:47:26;3.20;;;1.27;;
75997;SDS011;64685;48.762;44.822;2024-02-28T00:52:32;2.88;;;1.27;;
75997;SDS011;64685;48.762;44.822;2024-02-28T00:57:36;2.38;;;0.50;;
75997;SDS011;64685;48.762;44.822;2024-02-28T01:02:40;1.00;;;0.50;;
75997;SDS011;64685;48.762;44.822;2024-02-28T01:07:45;2.13;;;0.90;;
75997;SDS011;64685;48.762;44.822;2024-02-28T01:12:49;1.48;;;0.60;;
75997;SDS011;64685;48.762;44.822;2024-02-28T01:17:53;1.35;;;0.40;;
75997;SDS011;64685;48.762;44.822;2024-02-28T01:22:57;2.97;;;1.17;;
75997;SDS011;64685;48.762;44.822;2024-02-28T01:28:01;4.00;;;1.17;;
75997;SDS011;64685;48.762;44.822;2024-02-28T01:33:04;1.65;;;1.00;;
75997;SDS011;64685;48.762;44.822;2024-02-28T01:38:08;2.75;;;0.90;;
75997;SDS011;64685;48.762;44.822;2024-02-28T01:43:12;2.97;;;1.30;;
75997;SDS011;64685;48.762;44.822;2024-02-28T01:48:16;2.85;;;0.82;;
75997;SDS011;64685;48.762;44.822;2024-02-28T01:53:20;2.17;;;0.60;;
75997;SDS011;64685;48.762;44.822;2024-02-28T01:58:24;2.72;;;0.98;;
75997;SDS011;64685;48.762;44.822;2024-02-28T02:03:28;2.22;;;0.80;;
75997;SDS011;64685;48.762;44.822;2024-02-28T02:08:31;3.38;;;1.25;;
75997;SDS011;64685;48.762;44.822;2024-02-28T02:13:46;3.97;;;0.88;;
75997;SDS011;64685;48.762;44.822;2024-02-28T02:18:56;2.15;;;0.85;;
75997;SDS011;64685;48.762;44.822;2024-02-28T02:24:00;2.20;;;0.70;;
75997;SDS011;64685;48.762;44.822;2024-02-28T02:29:04;1.58;;;0.90;;
75997;SDS011;64685;48.762;44.822;2024-02-28T02:34:08;4.45;;;1.70;;
75997;SDS011;64685;48.762;44.822;2024-02-28T02:39:12;2.28;;;0.90;;
75997;SDS011;64685;48.762;44.822;2024-02-28T02:44:15;3.22;;;0.88;;
75997;SDS011;64685;48.762;44.822;2024-02-28T02:49:19;2.60;;;1.13;;
75997;SDS011;64685;48.762;44.822;2024-02-28T02:54:23;5.80;;;1.20;;
75997;SDS011;64685;48.762;44.822;2024-02-28T02:59:27;0.73;;;0.35;;
75997;SDS011;64685;48.762;44.822;2024-02-28T03:04:31;1.63;;;0.70;;
75997;SDS011;64685;48.762;44.822;2024-02-28T03:09:34;1.60;;;0.70;;
75997;SDS011;64685;48.762;44.822;2024-02-28T03:14:38;2.38;;;1.33;;
75997;SDS011;64685;48.762;44.822;2024-02-28T03:19:42;1.52;;;0.60;;
75997;SDS011;64685;48.762;44.822;2024-02-28T03:24:46;1.73;;;0.88;;
75997;SDS011;64685;48.762;44.822;2024-02-28T03:29:50;2.15;;;0.95;;
75997;SDS011;64685;48.762;44.822;2024-02-28T03:34:53;2.85;;;1.05;;
75997;SDS011;64685;48.762;44.822;2024-02-28T03:39:57;2.85;;;0.68;;
75997;SDS011;64685;48.762;44.822;2024-02-28T03:45:01;2.38;;;0.95;;
75997;SDS011;64685;48.762;44.822;2024-02-28T03:50:05;2.85;;;1.15;;
75997;SDS011;64685;48.762;44.822;2024-02-28T03:55:10;2.95;;;0.55;;
75997;SDS011;64685;48.762;44.822;2024-02-28T04:00:14;0.85;;;0.35;;
75997;SDS011;64685;48.762;44.822;2024-02-28T04:05:18;2.25;;;0.93;;
75997;SDS011;64685;48.762;44.822;2024-02-28T04:10:22;3.97;;;1.05;;
75997;SDS011;64685;48.762;44.822;2024-02-28T04:15:25;1.50;;;0.70;;
75997;SDS011;64685;48.762;44.822;2024-02-28T04:20:30;1.58;;;0.68;;
75997;SDS011;64685;48.762;44.822;2024-02-28T04:25:34;3.83;;;1.73;;
75997;SDS011;64685;48.762;44.822;2024-02-28T04:30:38;5.00;;;2.28;;
75997;SDS011;64685;48.762;44.822;2024-02-28T04:35:42;3.97;;;1.38;;
75997;SDS011;64685;48.762;44.822;2024-02-28T04:40:46;7.32;;;2.28;;
75997;SDS011;64685;48.762;44.822;2024-02-28T04:45:50;5.75;;;2.50;;
75997;SDS011;64685;48.762;44.822;2024-02-28T04:50:56;3.50;;;1.75;;
75997;SDS011;64685;48.762;44.822;2024-02-28T04:55:59;5.72;;;1.13;;
75997;SDS011;64685;48.762;44.822;2024-02-28T05:01:06;3.65;;;1.27;;
75997;SDS011;64685;48.762;44.822;2024-02-28T05:06:11;6.32;;;1.90;;
75997;SDS011;64685;48.762;44.822;2024-02-28T05:11:18;4.22;;;1.77;;
75997;SDS011;64685;48.762;44.822;2024-02-28T05:16:52;2.65;;;1.00;;
75997;SDS011;64685;48.762;44.822;2024-02-28T05:22:55;2.70;;;1.10;;
75997;SDS011;64685;48.762;44.822;2024-02-28T05:28:18;3.72;;;1.75;;
75997;SDS011;64685;48.762;44.822;2024-02-28T05:33:28;4.22;;;1.27;;
75997;SDS011;64685;48.762;44.822;2024-02-28T05:39:39;5.15;;;1.42;;
75997;SDS011;64685;48.762;44.822;2024-02-28T05:45:44;1.83;;;1.13;;
75997;SDS011;64685;48.762;44.822;2024-02-28T05:51:05;3.78;;;1.52;;
75997;SDS011;64685;48.762;44.822;2024-02-28T05:56:10;2.83;;;1.58;;
75997;SDS011;64685;48.762;44.822;2024-02-28T06:01:17;3.20;;;1.40;;
75997;SDS011;64685;48.762;44.822;2024-02-28T06:06:21;2.85;;;1.30;;
75997;SDS011;64685;48.762;44.822;2024-02-28T06:11:25;3.95;;;1.60;;
75997;SDS011;64685;48.762;44.822;2024-02-28T06:16:30;5.78;;;1.70;;
75997;SDS011;64685;48.762;44.822;2024-02-28T06:21:34;5.97;;;2.42;;
75997;SDS011;64685;48.762;44.822;2024-02-28T06:26:38;7.28;;;2.80;;
75997;SDS011;64685;48.762;44.822;2024-02-28T06:31:42;9.38;;;4.13;;
75997;SDS011;64685;48.762;44.822;2024-02-28T06:36:46;9.65;;;3.20;;
75997;SDS011;64685;48.762;44.822;2024-02-28T06:41:52;6.32;;;2.22;;
75997;SDS011;64685;48.762;44.822;2024-02-28T06:46:56;5.30;;;2.65;;
75997;SDS011;64685;48.762;44.822;2024-02-28T06:52:01;5.05;;;2.13;;
75997;SDS011;64685;48.762;44.822;2024-02-28T06:57:05;6.53;;;2.58;;
75997;SDS011;64685;48.762;44.822;2024-02-28T07:02:08;6.03;;;1.98;;
75997;SDS011;64685;48.762;44.822;2024-02-28T07:07:13;6.10;;;2.80;;
75997;SDS011;64685;48.762;44.822;2024-02-28T07:12:16;12.57;;;5.78;;
75997;SDS011;64685;48.762;44.822;2024-02-28T07:17:21;12.38;;;5.28;;
75997;SDS011;64685;48.762;44.822;2024-02-28T07:22:25;18.67;;;8.13;;
75997;SDS011;64685;48.762;44.822;2024-02-28T07:27:29;17.70;;;3.85;;
75997;SDS011;64685;48.762;44.822;2024-02-28T07:32:33;26.52;;;10.55;;
75997;SDS011;64685;48.762;44.822;2024-02-28T07:37:48;8.05;;;3.47;;
75997;SDS011;64685;48.762;44.822;2024-02-28T07:42:58;4.78;;;2.13;;
75997;SDS011;64685;48.762;44.822;2024-02-28T07:48:03;4.75;;;1.88;;
75997;SDS011;64685;48.762;44.822;2024-02-28T07:53:27;7.75;;;2.00;;
75997;SDS011;64685;48.762;44.822;2024-02-28T07:58:31;7.82;;;2.13;;
75997;SDS011;64685;48.762;44.822;2024-02-28T08:09:10;11.35;;;4.32;;
75997;SDS011;64685;48.762;44.822;2024-02-28T08:14:16;9.02;;;3.33;;
75997;SDS011;64685;48.762;44.822;2024-02-28T08:19:20;7.88;;;2.55;;
75997;SDS011;64685;48.762;44.822;2024-02-28T08:24:24;9.98;;;2.45;;
75997;SDS011;64685;48.762;44.822;2024-02-28T08:29:28;5.93;;;3.03;;
75997;SDS011;64685;48.762;44.822;2024-02-28T08:34:32;5.82;;;2.30;;
75997;SDS011;64685;48.762;44.822;2024-02-28T08:39:37;3.55;;;1.80;;
75997;SDS011;64685;48.762;44.822;2024-02-28T08:44:41;5.35;;;2.10;;
75997;SDS011;64685;48.762;44.822;2024-02-28T08:49:53;8.40;;;2.70;;
75997;SDS011;64685;48.762;44.822;2024-02-28T08:54:57;7.97;;;2.65;;
75997;SDS011;64685;48.762;44.822;2024-02-28T09:00:04;6.70;;;2.22;;
75997;SDS011;64685;48.762;44.822;2024-02-28T09:05:08;5.93;;;2.25;;
75997;SDS011;64685;48.762;44.822;2024-02-28T09:10:12;4.68;;;1.85;;
75997;SDS011;64685;48.762;44.822;2024-02-28T09:15:15;5.97;;;1.67;;
75997;SDS011;64685;48.762;44.822;2024-02-28T09:20:19;3.30;;;1.63;;
75997;SDS011;64685;48.762;44.822;2024-02-28T09:25:23;7.38;;;1.55;;
75997;SDS011;64685;48.762;44.822;2024-02-28T09:30:30;6.68;;;3.30;;
75997;SDS011;64685;48.762;44.822;2024-02-28T09:53:36;3.45;;;1.50;;
75997;SDS011;64685;48.762;44.822;2024-02-28T09:58:40;4.85;;;1.48;;
75997;SDS011;64685;48.762;44.822;2024-02-28T10:03:45;3.80;;;1.70;;
75997;SDS011;64685;48.762;44.822;2024-02-28T10:08:54;6.57;;;2.08;;
75997;SDS011;64685;48.762;44.822;2024-02-28T10:21:42;4.13;;;1.50;;
75997;SDS011;64685;48.762;44.822;2024-02-28T10:26:46;5.20;;;2.10;;
75997;SDS011;64685;48.762;44.822;2024-02-28T10:31:58;4.30;;;1.67;;
75997;SDS011;64685;48.762;44.822;2024-02-28T10:37:03;6.20;;;1.48;;
75997;SDS011;64685;48.762;44.822;2024-02-28T10:42:08;5.30;;;1.98;;
75997;SDS011;64685;48.762;44.822;2024-02-28T10:47:14;4.43;;;1.30;;
75997;SDS011;64685;48.762;44.822;2024-02-28T10:52:19;5.57;;;2.13;;
75997;SDS011;64685;48.762;44.822;2024-02-28T10:57:24;3.83;;;1.40;;
75997;SDS011;64685;48.762;44.822;2024-02-28T11:02:29;6.75;;;2.30;;
75997;SDS011;64685;48.762;44.822;2024-02-28T11:07:34;3.92;;;1.30;;
75997;SDS011;64685;48.762;44.822;2024-02-28T11:12:37;3.20;;;1.17;;
75997;SDS011;64685;48.762;44.822;2024-02-28T11:17:41;2.20;;;1.00;;
75997;SDS011;64685;48.762;44.822;2024-02-28T11:22:45;2.63;;;1.00;;
75997;SDS011;64685;48.762;44.822;2024-02-28T11:27:49;2.85;;;0.95;;
75997;SDS011;64685;48.762;44.822;2024-02-28T11:32:53;3.55;;;1.38;;
75997;SDS011;64685;48.762;44.822;2024-02-28T11:38:00;2.58;;;1.10;;
75997;SDS011;64685;48.762;44.822;2024-02-28T11:43:04;2.42;;;0.80;;
75997;SDS011;64685;48.762;44.822;2024-02-28T11:48:08;3.58;;;1.35;;
75997;SDS011;64685;48.762;44.822;2024-02-28T11:53:12;2.97;;;1.02;;
75997;SDS011;64685;48.762;44.822;2024-02-28T11:58:15;3.83;;;1.20;;
75997;SDS011;64685;48.762;44.822;2024-02-28T12:03:20;2.70;;;1.10;;
75997;SDS011;64685;48.762;44.822;2024-02-28T12:08:24;3.03;;;1.30;;
75997;SDS011;64685;48.762;44.822;2024-02-28T12:13:32;4.32;;;1.60;;
75997;SDS011;64685;48.762;44.822;2024-02-28T12:18:36;3.25;;;1.20;;
75997;SDS011;64685;48.762;44.822;2024-02-28T12:23:39;4.85;;;1.52;;
75997;SDS011;64685;48.762;44.822;2024-02-28T12:28:43;3.75;;;1.20;;
75997;SDS011;64685;48.762;44.822;2024-02-28T12:33:47;2.50;;;1.23;;
75997;SDS011;64685;48.762;44.822;2024-02-28T12:38:50;4.10;;;1.27;;
75997;SDS011;64685;48.762;44.822;2024-02-28T12:43:54;4.53;;;1.40;;
75997;SDS011;64685;48.762;44.822;2024-02-28T12:49:01;4.30;;;1.27;;
75997;SDS011;64685;48.762;44.822;2024-02-28T12:54:05;3.80;;;1.30;;
75997;SDS011;64685;48.762;44.822;2024-02-28T12:59:09;4.95;;;1.58;;
75997;SDS011;64685;48.762;44.822;2024-02-28T13:04:13;5.10;;;1.40;;
75997;SDS011;64685;48.762;44.822;2024-02-28T13:09:16;5.10;;;1.40;;
75997;SDS011;64685;48.762;44.822;2024-02-28T13:14:20;3.75;;;1.40;;
75997;SDS011;64685;48.762;44.822;2024-02-28T13:19:24;9.43;;;2.80;;
75997;SDS011;64685;48.762;44.822;2024-02-28T13:24:28;11.40;;;4.03;;
75997;SDS011;64685;48.762;44.822;2024-02-28T13:29:32;9.52;;;3.25;;
75997;SDS011;64685;48.762;44.822;2024-02-28T13:34:35;9.68;;;3.55;;
75997;SDS011;64685;48.762;44.822;2024-02-28T13:39:42;6.13;;;2.38;;
75997;SDS011;64685;48.762;44.822;2024-02-28T13:44:46;5.57;;;1.88;;
75997;SDS011;64685;48.762;44.822;2024-02-28T13:49:49;6.95;;;2.40;;
75997;SDS011;64685;48.762;44.822;2024-02-28T13:54:54;8.88;;;3.20;;
75997;SDS011;64685;48.762;44.822;2024-02-28T13:59:58;9.98;;;3.53;;
75997;SDS011;64685;48.762;44.822;2024-02-28T14:05:01;11.55;;;3.45;;
75997;SDS011;64685;48.762;44.822;2024-02-28T14:10:06;3.75;;;1.73;;
75997;SDS011;64685;48.762;44.822;2024-02-28T14:15:10;4.78;;;1.58;;
75997;SDS011;64685;48.762;44.822;2024-02-28T14:20:14;4.07;;;1.50;;
75997;SDS011;64685;48.762;44.822;2024-02-28T14:25:18;5.45;;;2.30;;
75997;SDS011;64685;48.762;44.822;2024-02-28T14:30:25;3.25;;;1.77;;
75997;SDS011;64685;48.762;44.822;2024-02-28T14:35:29;3.20;;;1.40;;
75997;SDS011;64685;48.762;44.822;2024-02-28T14:40:33;4.28;;;1.52;;
75997;SDS011;64685;48.762;44.822;2024-02-28T14:45:37;6.68;;;1.90;;
75997;SDS011;64685;48.762;44.822;2024-02-28T14:50:42;5.00;;;1.70;;
75997;SDS011;64685;48.762;44.822;2024-02-28T14:55:46;2.05;;;1.02;;
75997;SDS011;64685;48.762;44.822;2024-02-28T15:00:50;3.05;;;1.42;;
75997;SDS011;64685;48.762;44.822;2024-02-28T15:05:54;3.30;;;1.23;;
75997;SDS011;64685;48.762;44.822;2024-02-28T15:10:58;3.53;;;1.58;;
75997;SDS011;64685;48.762;44.822;2024-02-28T15:16:02;3.33;;;1.17;;
75997;SDS011;64685;48.762;44.822;2024-02-28T15:21:06;4.15;;;1.42;;
75997;SDS011;64685;48.762;44.822;2024-02-28T15:26:10;6.43;;;2.85;;
75997;SDS011;64685;48.762;44.822;2024-02-28T15:31:14;7.47;;;1.95;;
75997;SDS011;64685;48.762;44.822;2024-02-28T15:36:18;6.35;;;2.30;;
75997;SDS011;64685;48.762;44.822;2024-02-28T15:41:22;5.47;;;2.67;;
75997;SDS011;64685;48.762;44.822;2024-02-28T15:46:26;3.97;;;1.38;;
75997;SDS011;64685;48.762;44.822;2024-02-28T15:51:30;3.80;;;2.08;;
75997;SDS011;64685;48.762;44.822;2024-02-28T15:56:35;3.13;;;1.15;;
75997;SDS011;64685;48.762;44.822;2024-02-28T16:01:41;4.32;;;2.13;;
75997;SDS011;64685;48.762;44.822;2024-02-28T16:06:45;5.43;;;2.20;;
75997;SDS011;64685;48.762;44.822;2024-02-28T16:11:49;5.85;;;2.30;;
75997;SDS011;64685;48.762;44.822;2024-02-28T16:16:53;5.50;;;2.05;;
75997;SDS011;64685;48.762;44.822;2024-02-28T16:21:56;4.47;;;2.28;;
75997;SDS011;64685;48.762;44.822;2024-02-28T16:27:00;4.40;;;2.35;;
75997;SDS011;64685;48.762;44.822;2024-02-28T16:32:04;5.20;;;2.63;;
75997;SDS011;64685;48.762;44.822;2024-02-28T16:37:08;7.93;;;3.00;;
75997;SDS011;64685;48.762;44.822;2024-02-28T16:42:12;6.88;;;3.10;;
75997;SDS011;64685;48.762;44.822;2024-02-28T16:47:15;10.75;;;3.85;;
75997;SDS011;64685;48.762;44.822;2024-02-28T16:52:19;10.32;;;3.15;;
75997;SDS011;64685;48.762;44.822;2024-02-28T16:57:23;8.10;;;2.00;;
75997;SDS011;64685;48.762;44.822;2024-02-28T17:02:27;3.58;;;1.38;;
75997;SDS011;64685;48.762;44.822;2024-02-28T17:07:31;7.15;;;2.78;;
75997;SDS011;64685;48.762;44.822;2024-02-28T17:12:35;8.65;;;3.40;;
75997;SDS011;64685;48.762;44.822;2024-02-28T17:17:38;9.07;;;2.80;;
75997;SDS011;64685;48.762;44.822;2024-02-28T17:22:42;5.28;;;2.45;;
75997;SDS011;64685;48.762;44.822;2024-02-28T17:27:46;8.18;;;2.67;;
75997;SDS011;64685;48.762;44.822;2024-02-28T17:32:50;6.32;;;2.28;;
75997;SDS011;64685;48.762;44.822;2024-02-28T17:37:54;1.92;;;0.93;;
75997;SDS011;64685;48.762;44.822;2024-02-28T17:42:58;7.97;;;3.58;;
75997;SDS011;64685;48.762;44.822;2024-02-28T17:48:02;8.38;;;2.30;;
75997;SDS011;64685;48.762;44.822;2024-02-28T17:53:09;7.28;;;3.10;;
75997;SDS011;64685;48.762;44.822;2024-02-28T17:58:13;5.03;;;2.42;;
75997;SDS011;64685;48.762;44.822;2024-02-28T18:03:17;4.63;;;2.17;;
75997;SDS011;64685;48.762;44.822;2024-02-28T18:08:21;8.20;;;2.90;;
75997;SDS011;64685;48.762;44.822;2024-02-28T18:13:25;6.97;;;2.30;;
75997;SDS011;64685;48.762;44.822;2024-02-28T18:18:29;6.57;;;2.42;;
75997;SDS011;64685;48.762;44.822;2024-02-28T18:23:37;7.53;;;3.00;;
75997;SDS011;64685;48.762;44.822;2024-02-28T18:28:41;6.70;;;2.22;;
75997;SDS011;64685;48.762;44.822;2024-02-28T18:33:45;6.43;;;2.70;;
75997;SDS011;64685;48.762;44.822;2024-02-28T18:38:50;6.13;;;1.92;;
75997;SDS011;64685;48.762;44.822;2024-02-28T18:43:54;4.10;;;1.92;;
75997;SDS011;64685;48.762;44.822;2024-02-28T18:48:57;6.75;;;1.92;;
75997;SDS011;64685;48.762;44.822;2024-02-28T18:54:01;3.80;;;1.63;;
75997;SDS011;64685;48.762;44.822;2024-02-28T18:59:05;6.63;;;2.30;;
75997;SDS011;64685;48.762;44.822;2024-02-28T19:04:09;8.00;;;3.05;;
75997;SDS011;64685;48.762;44.822;2024-02-28T19:09:13;4.57;;;2.13;;
75997;SDS011;64685;48.762;44.822;2024-02-28T19:14:17;6.63;;;2.78;;
75997;SDS011;64685;48.762;44.822;2024-02-28T19:19:21;4.45;;;1.58;;
75997;SDS011;64685;48.762;44.822;2024-02-28T19:24:25;5.57;;;2.10;;
75997;SDS011;64685;48.762;44.822;2024-02-28T19:29:29;7.55;;;2.92;;
75997;SDS011;64685;48.762;44.822;2024-02-28T19:34:33;4.53;;;1.95;;
75997;SDS011;64685;48.762;44.822;2024-02-28T19:39:37;8.23;;;3.20;;
75997;SDS011;64685;48.762;44.822;2024-02-28T19:44:40;5.68;;;2.10;;
75997;SDS011;64685;48.762;44.822;2024-02-28T19:49:44;6.75;;;2.95;;
75997;SDS011;64685;48.762;44.822;2024-02-28T19:54:48;7.68;;;3.22;;
75997;SDS011;64685;48.762;44.822;2024-02-28T19:59:52;10.77;;;2.58;;
75997;SDS011;64685;48.762;44.822;2024-02-28T20:04:55;9.85;;;3.38;;
75997;SDS011;64685;48.762;44.822;2024-02-28T20:09:59;7.55;;;3.55;;
75997;SDS011;64685;48.762;44.822;2024-02-28T20:15:04;5.38;;;2.60;;
75997;SDS011;64685;48.762;44.822;2024-02-28T20:20:09;5.00;;;2.08;;
75997;SDS011;64685;48.762;44.822;2024-02-28T20:25:13;5.43;;;2.53;;
75997;SDS011;64685;48.762;44.822;2024-02-28T20:30:17;7.05;;;2.47;;
75997;SDS011;64685;48.762;44.822;2024-02-28T20:35:20;7.15;;;2.70;;
75997;SDS011;64685;48.762;44.822;2024-02-28T20:40:24;5.57;;;2.28;;
75997;SDS011;64685;48.762;44.822;2024-02-28T20:45:28;7.57;;;2.17;;
75997;SDS011;64685;48.762;44.822;2024-02-28T20:50:34;6.80;;;2.40;;
75997;SDS011;64685;48.762;44.822;2024-02-28T20:55:38;8.52;;;2.92;;
75997;SDS011;64685;48.762;44.822;2024-02-28T21:00:42;4.15;;;2.40;;
75997;SDS011;64685;48.762;44.822;2024-02-28T21:05:46;5.88;;;2.33;;
75997;SDS011;64685;48.762;44.822;2024-02-28T21:10:50;8.40;;;3.08;;
75997;SDS011;64685;48.762;44.822;2024-02-28T21:15:53;8.93;;;3.03;;
75997;SDS011;64685;48.762;44.822;2024-02-28T21:20:57;7.95;;;2.90;;
75997;SDS011;64685;48.762;44.822;2024-02-28T21:26:02;6.00;;;2.58;;
75997;SDS011;64685;48.762;44.822;2024-02-28T21:31:06;7.78;;;2.85;;
75997;SDS011;64685;48.762;44.822;2024-02-28T21:36:10;6.28;;;2.25;;
75997;SDS011;64685;48.762;44.822;2024-02-28T21:41:14;8.82;;;3.10;;
75997;SDS011;64685;48.762;44.822;2024-02-28T21:46:18;8.52;;;3.17;;
75997;SDS011;64685;48.762;44.822;2024-02-28T21:51:24;7.75;;;3.17;;
75997;SDS011;64685;48.762;44.822;2024-02-28T21:56:28;9.05;;;3.20;;
75997;SDS011;64685;48.762;44.822;2024-02-28T22:01:32;8.75;;;2.90;;
75997;SDS011;64685;48.762;44.822;2024-02-28T22:06:35;5.97;;;2.42;;
75997;SDS011;64685;48.762;44.822;2024-02-28T22:11:39;9.65;;;3.45;;
75997;SDS011;64685;48.762;44.822;2024-02-28T22:16:43;7.50;;;3.28;;
75997;SDS011;64685;48.762;44.822;2024-02-28T22:21:47;7.20;;;2.70;;
75997;SDS011;64685;48.762;44.822;2024-02-28T22:26:51;7.93;;;2.40;;
75997;SDS011;64685;48.762;44.822;2024-02-28T22:31:54;7.00;;;2.40;;
75997;SDS011;64685;48.762;44.822;2024-02-28T22:36:58;9.40;;;3.58;;
75997;SDS011;64685;48.762;44.822;2024-02-28T22:42:04;6.07;;;2.30;;
75997;SDS011;64685;48.762;44.822;2024-02-28T22:47:09;12.27;;;3.25;;
75997;SDS011;64685;48.762;44.822;2024-02-28T22:52:12;11.00;;;3.60;;
75997;SDS011;64685;48.762;44.822;2024-02-28T22:57:16;11.27;;;3.95;;
75997;SDS011;64685;48.762;44.822;2024-02-28T23:02:20;8.30;;;3.15;;
75997;SDS011;64685;48.762;44.822;2024-02-28T23:07:24;11.15;;;4.50;;
75997;SDS011;64685;48.762;44.822;2024-02-28T23:12:28;8.48;;;3.22;;
75997;SDS011;64685;48.762;44.822;2024-02-28T23:17:32;12.57;;;4.45;;
75997;SDS011;64685;48.762;44.822;2024-02-28T23:22:35;8.30;;;3.70;;
75997;SDS011;64685;48.762;44.822;2024-02-28T23:27:39;9.55;;;4.20;;
75997;SDS011;64685;48.762;44.822;2024-02-28T23:32:43;12.18;;;4.30;;
75997;SDS011;64685;48.762;44.822;2024-02-28T23:37:47;11.73;;;4.03;;
75997;SDS011;64685;48.762;44.822;2024-02-28T23:42:51;7.35;;;3.30;;
75997;SDS011;64685;48.762;44.822;2024-02-28T23:47:55;6.80;;;2.65;;
75997;SDS011;64685;48.762;44.822;2024-02-28T23:52:59;9.93;;;3.17;;
75997;SDS011;64685;48.762;44.822;2024-02-28T23:58:03;8.45;;;2.92;;
